sensor_id;sensor_type;location;lat;lon;timestamp;P1;durP1;ratioP1;P2;durP2;ratioP2
7813;SDS011;3952;48.364;16.022;2022-07-17T00:02:09;2.00;;;1.90;;
7813;SDS011;3952;48.364;16.022;2022-07-17T00:04:36;2.30;;;2.20;;
7813;SDS011;3952;48.364;16.022;2022-07-17T00:07:03;2.23;;;2.13;;
7813;SDS011;3952;48.364;16.022;2022-07-17T00:09:32;2.53;;;2.40;;
7813;SDS011;3952;48.364;16.022;2022-07-17T00:11:59;2.67;;;2.30;;
7813;SDS011;3952;48.364;16.022;2022-07-17T00:14:26;5.43;;;2.30;;
7813;SDS011;3952;48.364;16.022;2022-07-17T00:16:54;2.30;;;2.20;;
7813;SDS011;3952;48.364;16.022;2022-07-17T00:19:23;2.47;;;2.37;;
7813;SDS011;3952;48.364;16.022;2022-07-17T00:21:50;1.90;;;1.80;;
7813;SDS011;3952;48.364;16.022;2022-07-17T00:24:17;2.20;;;2.10;;
7813;SDS011;3952;48.364;16.022;2022-07-17T00:26:47;3.97;;;2.30;;
7813;SDS011;3952;48.364;16.022;2022-07-17T00:29:15;2.60;;;2.50;;
7813;SDS011;3952;48.364;16.022;2022-07-17T00:31:43;2.27;;;2.10;;
7813;SDS011;3952;48.364;16.022;2022-07-17T00:34:11;2.40;;;2.30;;
7813;SDS011;3952;48.364;16.022;2022-07-17T00:36:38;2.37;;;2.10;;
7813;SDS011;3952;48.364;16.022;2022-07-17T00:39:05;2.20;;;2.10;;
7813;SDS011;3952;48.364;16.022;2022-07-17T00:41:33;3.20;;;2.30;;
7813;SDS011;3952;48.364;16.022;2022-07-17T00:44:06;2.80;;;2.20;;
7813;SDS011;3952;48.364;16.022;2022-07-17T00:46:35;2.30;;;2.10;;
7813;SDS011;3952;48.364;16.022;2022-07-17T00:49:03;2.70;;;2.50;;
7813;SDS011;3952;48.364;16.022;2022-07-17T00:51:31;2.80;;;2.43;;
7813;SDS011;3952;48.364;16.022;2022-07-17T00:53:58;2.50;;;2.30;;
7813;SDS011;3952;48.364;16.022;2022-07-17T00:56:26;2.20;;;2.10;;
7813;SDS011;3952;48.364;16.022;2022-07-17T00:58:55;2.60;;;2.40;;
7813;SDS011;3952;48.364;16.022;2022-07-17T01:01:24;2.27;;;2.17;;
7813;SDS011;3952;48.364;16.022;2022-07-17T01:03:51;2.67;;;2.47;;
7813;SDS011;3952;48.364;16.022;2022-07-17T01:06:18;1.97;;;1.87;;
7813;SDS011;3952;48.364;16.022;2022-07-17T01:08:45;2.20;;;2.10;;
7813;SDS011;3952;48.364;16.022;2022-07-17T01:11:13;2.33;;;2.23;;
7813;SDS011;3952;48.364;16.022;2022-07-17T01:13:40;3.00;;;2.20;;
7813;SDS011;3952;48.364;16.022;2022-07-17T01:16:08;2.20;;;2.00;;
7813;SDS011;3952;48.364;16.022;2022-07-17T01:18:37;2.13;;;2.03;;
7813;SDS011;3952;48.364;16.022;2022-07-17T01:21:07;2.10;;;2.00;;
7813;SDS011;3952;48.364;16.022;2022-07-17T01:23:34;3.43;;;3.23;;
7813;SDS011;3952;48.364;16.022;2022-07-17T01:26:01;4.80;;;4.33;;
7813;SDS011;3952;48.364;16.022;2022-07-17T01:28:29;3.97;;;3.67;;
7813;SDS011;3952;48.364;16.022;2022-07-17T01:30:56;4.07;;;3.67;;
7813;SDS011;3952;48.364;16.022;2022-07-17T01:33:27;3.63;;;3.43;;
7813;SDS011;3952;48.364;16.022;2022-07-17T01:35:54;4.07;;;3.67;;
7813;SDS011;3952;48.364;16.022;2022-07-17T01:38:22;3.57;;;3.27;;
7813;SDS011;3952;48.364;16.022;2022-07-17T01:40:50;2.77;;;2.57;;
7813;SDS011;3952;48.364;16.022;2022-07-17T01:43:17;2.50;;;2.40;;
7813;SDS011;3952;48.364;16.022;2022-07-17T01:45:45;2.47;;;2.37;;
7813;SDS011;3952;48.364;16.022;2022-07-17T01:48:22;2.20;;;2.10;;
7813;SDS011;3952;48.364;16.022;2022-07-17T01:50:50;2.60;;;2.20;;
7813;SDS011;3952;48.364;16.022;2022-07-17T01:53:17;2.27;;;2.17;;
7813;SDS011;3952;48.364;16.022;2022-07-17T01:55:46;2.30;;;2.20;;
7813;SDS011;3952;48.364;16.022;2022-07-17T01:58:13;2.23;;;2.13;;
7813;SDS011;3952;48.364;16.022;2022-07-17T02:00:42;2.53;;;2.37;;
7813;SDS011;3952;48.364;16.022;2022-07-17T02:03:09;2.40;;;2.30;;
7813;SDS011;3952;48.364;16.022;2022-07-17T02:05:36;2.00;;;1.90;;
7813;SDS011;3952;48.364;16.022;2022-07-17T02:08:04;2.40;;;2.30;;
7813;SDS011;3952;48.364;16.022;2022-07-17T02:10:32;3.20;;;2.17;;
7813;SDS011;3952;48.364;16.022;2022-07-17T02:13:00;2.20;;;2.00;;
7813;SDS011;3952;48.364;16.022;2022-07-17T02:15:28;2.43;;;2.23;;
7813;SDS011;3952;48.364;16.022;2022-07-17T02:17:55;2.23;;;2.13;;
7813;SDS011;3952;48.364;16.022;2022-07-17T02:20:23;2.00;;;1.90;;
7813;SDS011;3952;48.364;16.022;2022-07-17T02:22:51;1.80;;;1.80;;
7813;SDS011;3952;48.364;16.022;2022-07-17T02:25:19;3.80;;;2.40;;
7813;SDS011;3952;48.364;16.022;2022-07-17T02:27:46;2.10;;;2.00;;
7813;SDS011;3952;48.364;16.022;2022-07-17T02:30:15;2.93;;;2.73;;
7813;SDS011;3952;48.364;16.022;2022-07-17T02:32:44;2.07;;;1.97;;
7813;SDS011;3952;48.364;16.022;2022-07-17T02:35:12;2.70;;;2.50;;
7813;SDS011;3952;48.364;16.022;2022-07-17T02:37:40;2.20;;;2.10;;
7813;SDS011;3952;48.364;16.022;2022-07-17T02:40:08;2.27;;;2.17;;
7813;SDS011;3952;48.364;16.022;2022-07-17T02:42:36;2.33;;;2.23;;
7813;SDS011;3952;48.364;16.022;2022-07-17T02:45:04;4.27;;;2.50;;
7813;SDS011;3952;48.364;16.022;2022-07-17T02:47:34;2.30;;;2.10;;
7813;SDS011;3952;48.364;16.022;2022-07-17T02:50:03;2.67;;;2.50;;
7813;SDS011;3952;48.364;16.022;2022-07-17T02:52:32;2.57;;;2.47;;
7813;SDS011;3952;48.364;16.022;2022-07-17T02:55:00;2.30;;;2.20;;
7813;SDS011;3952;48.364;16.022;2022-07-17T02:57:27;2.73;;;2.53;;
7813;SDS011;3952;48.364;16.022;2022-07-17T02:59:54;5.37;;;2.80;;
7813;SDS011;3952;48.364;16.022;2022-07-17T03:02:21;2.73;;;2.53;;
7813;SDS011;3952;48.364;16.022;2022-07-17T03:04:50;2.83;;;2.50;;
7813;SDS011;3952;48.364;16.022;2022-07-17T03:07:17;4.10;;;2.30;;
7813;SDS011;3952;48.364;16.022;2022-07-17T03:09:44;2.50;;;2.40;;
7813;SDS011;3952;48.364;16.022;2022-07-17T03:12:12;2.93;;;2.83;;
7813;SDS011;3952;48.364;16.022;2022-07-17T03:14:39;2.87;;;2.67;;
7813;SDS011;3952;48.364;16.022;2022-07-17T03:17:06;2.43;;;2.23;;
7813;SDS011;3952;48.364;16.022;2022-07-17T03:19:34;3.03;;;2.77;;
7813;SDS011;3952;48.364;16.022;2022-07-17T03:22:03;3.30;;;2.40;;
7813;SDS011;3952;48.364;16.022;2022-07-17T03:24:30;3.73;;;2.40;;
7813;SDS011;3952;48.364;16.022;2022-07-17T03:26:58;2.47;;;2.33;;
7813;SDS011;3952;48.364;16.022;2022-07-17T03:29:25;2.77;;;2.67;;
7813;SDS011;3952;48.364;16.022;2022-07-17T03:31:52;2.33;;;2.23;;
7813;SDS011;3952;48.364;16.022;2022-07-17T03:34:20;2.53;;;2.37;;
7813;SDS011;3952;48.364;16.022;2022-07-17T03:36:47;3.13;;;2.93;;
7813;SDS011;3952;48.364;16.022;2022-07-17T03:39:15;3.33;;;2.47;;
7813;SDS011;3952;48.364;16.022;2022-07-17T03:41:43;2.67;;;2.57;;
7813;SDS011;3952;48.364;16.022;2022-07-17T03:44:10;3.07;;;2.77;;
7813;SDS011;3952;48.364;16.022;2022-07-17T03:46:37;3.27;;;2.90;;
7813;SDS011;3952;48.364;16.022;2022-07-17T03:49:04;3.27;;;3.07;;
7813;SDS011;3952;48.364;16.022;2022-07-17T03:51:32;3.70;;;3.47;;
7813;SDS011;3952;48.364;16.022;2022-07-17T03:53:59;3.10;;;2.80;;
7813;SDS011;3952;48.364;16.022;2022-07-17T03:56:28;3.37;;;3.13;;
7813;SDS011;3952;48.364;16.022;2022-07-17T03:58:55;4.10;;;3.80;;
7813;SDS011;3952;48.364;16.022;2022-07-17T04:01:22;4.27;;;3.97;;
7813;SDS011;3952;48.364;16.022;2022-07-17T04:03:50;4.10;;;3.90;;
7813;SDS011;3952;48.364;16.022;2022-07-17T04:06:17;4.30;;;4.00;;
7813;SDS011;3952;48.364;16.022;2022-07-17T04:08:44;4.07;;;3.77;;
7813;SDS011;3952;48.364;16.022;2022-07-17T04:11:11;4.00;;;3.80;;
7813;SDS011;3952;48.364;16.022;2022-07-17T04:13:40;3.60;;;3.50;;
7813;SDS011;3952;48.364;16.022;2022-07-17T04:16:07;3.53;;;3.33;;
7813;SDS011;3952;48.364;16.022;2022-07-17T04:18:35;3.73;;;3.53;;
7813;SDS011;3952;48.364;16.022;2022-07-17T04:21:03;3.40;;;3.20;;
7813;SDS011;3952;48.364;16.022;2022-07-17T04:23:32;3.20;;;3.00;;
7813;SDS011;3952;48.364;16.022;2022-07-17T04:26:00;3.50;;;3.30;;
7813;SDS011;3952;48.364;16.022;2022-07-17T04:28:27;3.50;;;3.30;;
7813;SDS011;3952;48.364;16.022;2022-07-17T04:30:56;3.57;;;3.37;;
7813;SDS011;3952;48.364;16.022;2022-07-17T04:33:23;3.60;;;3.40;;
7813;SDS011;3952;48.364;16.022;2022-07-17T04:35:50;3.07;;;2.87;;
7813;SDS011;3952;48.364;16.022;2022-07-17T04:38:18;3.57;;;3.00;;
7813;SDS011;3952;48.364;16.022;2022-07-17T04:40:45;3.60;;;3.30;;
7813;SDS011;3952;48.364;16.022;2022-07-17T04:43:13;2.50;;;2.40;;
7813;SDS011;3952;48.364;16.022;2022-07-17T04:45:40;2.93;;;2.83;;
7813;SDS011;3952;48.364;16.022;2022-07-17T04:48:09;2.53;;;2.43;;
7813;SDS011;3952;48.364;16.022;2022-07-17T04:50:36;2.50;;;2.40;;
7813;SDS011;3952;48.364;16.022;2022-07-17T04:53:03;2.67;;;2.47;;
7813;SDS011;3952;48.364;16.022;2022-07-17T04:55:30;2.70;;;2.60;;
7813;SDS011;3952;48.364;16.022;2022-07-17T04:57:57;2.67;;;2.47;;
7813;SDS011;3952;48.364;16.022;2022-07-17T05:00:25;2.57;;;2.47;;
7813;SDS011;3952;48.364;16.022;2022-07-17T05:02:52;2.57;;;2.37;;
7813;SDS011;3952;48.364;16.022;2022-07-17T05:05:21;3.10;;;2.90;;
7813;SDS011;3952;48.364;16.022;2022-07-17T05:07:49;2.23;;;2.13;;
7813;SDS011;3952;48.364;16.022;2022-07-17T05:10:16;2.60;;;2.50;;
7813;SDS011;3952;48.364;16.022;2022-07-17T05:12:43;3.40;;;2.43;;
7813;SDS011;3952;48.364;16.022;2022-07-17T05:15:10;2.80;;;2.60;;
7813;SDS011;3952;48.364;16.022;2022-07-17T05:17:38;2.33;;;2.23;;
7813;SDS011;3952;48.364;16.022;2022-07-17T05:20:06;2.40;;;2.30;;
7813;SDS011;3952;48.364;16.022;2022-07-17T05:22:35;2.23;;;2.13;;
7813;SDS011;3952;48.364;16.022;2022-07-17T05:25:03;2.30;;;2.20;;
7813;SDS011;3952;48.364;16.022;2022-07-17T05:27:31;2.30;;;2.20;;
7813;SDS011;3952;48.364;16.022;2022-07-17T05:29:59;2.30;;;2.20;;
7813;SDS011;3952;48.364;16.022;2022-07-17T05:32:26;2.70;;;2.50;;
7813;SDS011;3952;48.364;16.022;2022-07-17T05:34:53;2.57;;;2.47;;
7813;SDS011;3952;48.364;16.022;2022-07-17T05:37:20;2.13;;;1.93;;
7813;SDS011;3952;48.364;16.022;2022-07-17T05:39:49;2.47;;;2.37;;
7813;SDS011;3952;48.364;16.022;2022-07-17T05:42:16;4.00;;;2.20;;
7813;SDS011;3952;48.364;16.022;2022-07-17T05:44:43;2.00;;;1.97;;
7813;SDS011;3952;48.364;16.022;2022-07-17T05:47:11;2.20;;;2.10;;
7813;SDS011;3952;48.364;16.022;2022-07-17T05:49:38;2.20;;;2.10;;
7813;SDS011;3952;48.364;16.022;2022-07-17T05:52:05;2.33;;;2.23;;
7813;SDS011;3952;48.364;16.022;2022-07-17T05:54:33;1.70;;;1.70;;
7813;SDS011;3952;48.364;16.022;2022-07-17T05:57:02;3.13;;;2.10;;
7813;SDS011;3952;48.364;16.022;2022-07-17T05:59:29;2.33;;;2.23;;
7813;SDS011;3952;48.364;16.022;2022-07-17T06:01:56;2.43;;;2.33;;
7813;SDS011;3952;48.364;16.022;2022-07-17T06:04:23;2.60;;;2.13;;
7813;SDS011;3952;48.364;16.022;2022-07-17T06:06:51;2.13;;;2.03;;
7813;SDS011;3952;48.364;16.022;2022-07-17T06:09:18;2.50;;;2.30;;
7813;SDS011;3952;48.364;16.022;2022-07-17T06:11:45;2.20;;;2.00;;
7813;SDS011;3952;48.364;16.022;2022-07-17T06:14:14;2.17;;;2.07;;
7813;SDS011;3952;48.364;16.022;2022-07-17T06:16:42;2.50;;;2.40;;
7813;SDS011;3952;48.364;16.022;2022-07-17T06:19:09;2.27;;;2.17;;
7813;SDS011;3952;48.364;16.022;2022-07-17T06:21:37;2.20;;;2.00;;
7813;SDS011;3952;48.364;16.022;2022-07-17T06:24:04;2.20;;;2.10;;
7813;SDS011;3952;48.364;16.022;2022-07-17T06:26:31;2.10;;;2.00;;
7813;SDS011;3952;48.364;16.022;2022-07-17T06:28:59;1.83;;;1.73;;
7813;SDS011;3952;48.364;16.022;2022-07-17T06:31:27;2.23;;;2.13;;
7813;SDS011;3952;48.364;16.022;2022-07-17T06:33:54;2.10;;;2.00;;
7813;SDS011;3952;48.364;16.022;2022-07-17T06:36:22;1.97;;;1.80;;
7813;SDS011;3952;48.364;16.022;2022-07-17T06:38:49;2.30;;;2.20;;
7813;SDS011;3952;48.364;16.022;2022-07-17T06:41:16;2.00;;;1.90;;
7813;SDS011;3952;48.364;16.022;2022-07-17T06:43:44;1.83;;;1.77;;
7813;SDS011;3952;48.364;16.022;2022-07-17T06:46:11;2.00;;;1.90;;
7813;SDS011;3952;48.364;16.022;2022-07-17T06:48:39;2.13;;;1.70;;
7813;SDS011;3952;48.364;16.022;2022-07-17T06:51:07;2.00;;;1.87;;
7813;SDS011;3952;48.364;16.022;2022-07-17T06:53:34;1.60;;;1.50;;
7813;SDS011;3952;48.364;16.022;2022-07-17T06:56:01;2.83;;;1.63;;
7813;SDS011;3952;48.364;16.022;2022-07-17T06:58:29;1.57;;;1.47;;
7813;SDS011;3952;48.364;16.022;2022-07-17T07:00:56;1.37;;;1.27;;
7813;SDS011;3952;48.364;16.022;2022-07-17T07:03:23;1.50;;;1.50;;
7813;SDS011;3952;48.364;16.022;2022-07-17T07:05:52;1.30;;;1.30;;
7813;SDS011;3952;48.364;16.022;2022-07-17T07:08:20;1.40;;;1.30;;
7813;SDS011;3952;48.364;16.022;2022-07-17T07:10:47;1.17;;;1.03;;
7813;SDS011;3952;48.364;16.022;2022-07-17T07:13:14;1.30;;;1.30;;
7813;SDS011;3952;48.364;16.022;2022-07-17T07:15:42;1.53;;;1.20;;
7813;SDS011;3952;48.364;16.022;2022-07-17T07:18:09;5.63;;;1.20;;
7813;SDS011;3952;48.364;16.022;2022-07-17T07:20:36;2.70;;;1.20;;
7813;SDS011;3952;48.364;16.022;2022-07-17T07:23:05;1.90;;;1.60;;
7813;SDS011;3952;48.364;16.022;2022-07-17T07:25:32;1.20;;;1.10;;
7813;SDS011;3952;48.364;16.022;2022-07-17T07:27:59;1.07;;;1.07;;
7813;SDS011;3952;48.364;16.022;2022-07-17T07:30:26;2.10;;;1.27;;
7813;SDS011;3952;48.364;16.022;2022-07-17T07:32:54;1.27;;;1.17;;
7813;SDS011;3952;48.364;16.022;2022-07-17T07:35:21;1.60;;;1.50;;
7813;SDS011;3952;48.364;16.022;2022-07-17T07:37:49;1.40;;;1.20;;
7813;SDS011;3952;48.364;16.022;2022-07-17T07:40:18;1.30;;;1.30;;
7813;SDS011;3952;48.364;16.022;2022-07-17T07:42:45;1.20;;;1.20;;
7813;SDS011;3952;48.364;16.022;2022-07-17T07:45:12;1.20;;;1.10;;
7813;SDS011;3952;48.364;16.022;2022-07-17T07:47:40;0.93;;;0.70;;
7813;SDS011;3952;48.364;16.022;2022-07-17T07:50:09;1.53;;;1.10;;
7813;SDS011;3952;48.364;16.022;2022-07-17T07:52:37;0.97;;;0.90;;
7813;SDS011;3952;48.364;16.022;2022-07-17T07:55:05;1.37;;;1.00;;
7813;SDS011;3952;48.364;16.022;2022-07-17T07:57:35;1.77;;;0.70;;
7813;SDS011;3952;48.364;16.022;2022-07-17T08:00:03;1.27;;;0.90;;
7813;SDS011;3952;48.364;16.022;2022-07-17T08:02:31;2.23;;;0.83;;
7813;SDS011;3952;48.364;16.022;2022-07-17T08:04:59;4.50;;;1.00;;
7813;SDS011;3952;48.364;16.022;2022-07-17T08:07:26;6.30;;;1.10;;
7813;SDS011;3952;48.364;16.022;2022-07-17T08:09:54;2.43;;;1.00;;
7813;SDS011;3952;48.364;16.022;2022-07-17T08:12:21;2.03;;;1.10;;
7813;SDS011;3952;48.364;16.022;2022-07-17T08:14:50;1.97;;;0.90;;
7813;SDS011;3952;48.364;16.022;2022-07-17T08:17:17;4.33;;;1.10;;
7813;SDS011;3952;48.364;16.022;2022-07-17T08:19:45;1.00;;;0.73;;
7813;SDS011;3952;48.364;16.022;2022-07-17T08:22:13;0.83;;;0.70;;
7813;SDS011;3952;48.364;16.022;2022-07-17T08:24:40;6.93;;;1.23;;
7813;SDS011;3952;48.364;16.022;2022-07-17T08:27:07;1.80;;;1.00;;
7813;SDS011;3952;48.364;16.022;2022-07-17T08:29:34;1.10;;;1.00;;
7813;SDS011;3952;48.364;16.022;2022-07-17T08:32:03;1.17;;;1.05;;
7813;SDS011;3952;48.364;16.022;2022-07-17T08:34:31;1.23;;;1.08;;
7813;SDS011;3952;48.364;16.022;2022-07-17T08:36:58;1.65;;;1.02;;
7813;SDS011;3952;48.364;16.022;2022-07-17T08:39:25;2.10;;;0.98;;
7813;SDS011;3952;48.364;16.022;2022-07-17T08:41:52;2.53;;;1.13;;
7813;SDS011;3952;48.364;16.022;2022-07-17T08:44:20;3.78;;;1.02;;
7813;SDS011;3952;48.364;16.022;2022-07-17T08:46:47;1.52;;;1.10;;
7813;SDS011;3952;48.364;16.022;2022-07-17T08:49:19;1.92;;;0.77;;
7813;SDS011;3952;48.364;16.022;2022-07-17T08:51:48;2.00;;;1.00;;
7813;SDS011;3952;48.364;16.022;2022-07-17T08:54:16;0.75;;;0.75;;
7813;SDS011;3952;48.364;16.022;2022-07-17T08:56:43;1.10;;;0.88;;
7813;SDS011;3952;48.364;16.022;2022-07-17T08:59:10;1.58;;;0.93;;
7813;SDS011;3952;48.364;16.022;2022-07-17T09:01:37;1.60;;;0.90;;
7813;SDS011;3952;48.364;16.022;2022-07-17T09:04:05;1.48;;;1.23;;
7813;SDS011;3952;48.364;16.022;2022-07-17T09:06:36;2.42;;;1.10;;
7813;SDS011;3952;48.364;16.022;2022-07-17T09:09:03;1.30;;;0.90;;
7813;SDS011;3952;48.364;16.022;2022-07-17T09:11:47;2.67;;;1.27;;
7813;SDS011;3952;48.364;16.022;2022-07-17T09:14:16;1.20;;;1.00;;
7813;SDS011;3952;48.364;16.022;2022-07-17T09:16:48;1.05;;;0.90;;
7813;SDS011;3952;48.364;16.022;2022-07-17T09:19:26;1.45;;;1.00;;
7813;SDS011;3952;48.364;16.022;2022-07-17T09:22:05;2.33;;;1.42;;
7813;SDS011;3952;48.364;16.022;2022-07-17T09:24:40;2.70;;;1.30;;
7813;SDS011;3952;48.364;16.022;2022-07-17T09:27:09;1.95;;;1.05;;
7813;SDS011;3952;48.364;16.022;2022-07-17T09:29:49;1.40;;;1.10;;
7813;SDS011;3952;48.364;16.022;2022-07-17T09:32:20;1.30;;;1.05;;
7813;SDS011;3952;48.364;16.022;2022-07-17T09:34:49;2.25;;;0.98;;
7813;SDS011;3952;48.364;16.022;2022-07-17T09:37:20;2.40;;;2.17;;
7813;SDS011;3952;48.364;16.022;2022-07-17T09:39:49;1.38;;;1.27;;
7813;SDS011;3952;48.364;16.022;2022-07-17T09:42:23;1.17;;;1.08;;
7813;SDS011;3952;48.364;16.022;2022-07-17T09:44:55;0.95;;;0.95;;
7813;SDS011;3952;48.364;16.022;2022-07-17T09:47:24;2.53;;;1.00;;
7813;SDS011;3952;48.364;16.022;2022-07-17T09:49:52;2.42;;;1.20;;
7813;SDS011;3952;48.364;16.022;2022-07-17T09:52:21;5.05;;;1.35;;
7813;SDS011;3952;48.364;16.022;2022-07-17T09:54:51;1.10;;;1.00;;
7813;SDS011;3952;48.364;16.022;2022-07-17T09:57:19;3.33;;;1.10;;
7813;SDS011;3952;48.364;16.022;2022-07-17T09:59:51;1.63;;;1.05;;
7813;SDS011;3952;48.364;16.022;2022-07-17T10:02:20;2.60;;;1.05;;
7813;SDS011;3952;48.364;16.022;2022-07-17T10:04:48;7.25;;;1.27;;
7813;SDS011;3952;48.364;16.022;2022-07-17T10:07:15;1.98;;;1.10;;
7813;SDS011;3952;48.364;16.022;2022-07-17T10:09:44;1.90;;;0.98;;
7813;SDS011;3952;48.364;16.022;2022-07-17T10:12:13;0.90;;;0.90;;
7813;SDS011;3952;48.364;16.022;2022-07-17T10:14:41;1.35;;;0.90;;
7813;SDS011;3952;48.364;16.022;2022-07-17T10:17:12;3.92;;;1.08;;
7813;SDS011;3952;48.364;16.022;2022-07-17T10:19:44;1.17;;;1.08;;
7813;SDS011;3952;48.364;16.022;2022-07-17T10:22:14;2.50;;;1.27;;
7813;SDS011;3952;48.364;16.022;2022-07-17T10:24:46;2.35;;;1.10;;
7813;SDS011;3952;48.364;16.022;2022-07-17T10:27:21;1.00;;;1.00;;
7813;SDS011;3952;48.364;16.022;2022-07-17T10:30:00;0.98;;;0.95;;
7813;SDS011;3952;48.364;16.022;2022-07-17T10:32:28;2.92;;;0.98;;
7813;SDS011;3952;48.364;16.022;2022-07-17T10:34:58;4.28;;;1.33;;
7813;SDS011;3952;48.364;16.022;2022-07-17T10:37:27;1.45;;;1.35;;
7813;SDS011;3952;48.364;16.022;2022-07-17T10:40:00;1.48;;;1.35;;
7813;SDS011;3952;48.364;16.022;2022-07-17T10:42:40;1.52;;;1.38;;
7813;SDS011;3952;48.364;16.022;2022-07-17T10:45:10;1.40;;;1.30;;
7813;SDS011;3952;48.364;16.022;2022-07-17T10:47:43;2.10;;;1.63;;
7813;SDS011;3952;48.364;16.022;2022-07-17T10:50:11;0.88;;;0.88;;
7813;SDS011;3952;48.364;16.022;2022-07-17T10:52:39;1.10;;;1.10;;
7813;SDS011;3952;48.364;16.022;2022-07-17T10:55:18;2.95;;;1.10;;
7813;SDS011;3952;48.364;16.022;2022-07-17T10:57:47;2.67;;;1.20;;
7813;SDS011;3952;48.364;16.022;2022-07-17T11:00:15;1.20;;;1.20;;
7813;SDS011;3952;48.364;16.022;2022-07-17T11:02:42;1.38;;;1.10;;
7813;SDS011;3952;48.364;16.022;2022-07-17T11:05:10;1.85;;;1.20;;
7813;SDS011;3952;48.364;16.022;2022-07-17T11:07:52;1.17;;;1.08;;
7813;SDS011;3952;48.364;16.022;2022-07-17T11:10:25;1.50;;;1.33;;
7813;SDS011;3952;48.364;16.022;2022-07-17T11:12:53;1.15;;;1.10;;
7813;SDS011;3952;48.364;16.022;2022-07-17T11:15:22;1.55;;;1.35;;
7813;SDS011;3952;48.364;16.022;2022-07-17T11:17:49;2.25;;;1.10;;
7813;SDS011;3952;48.364;16.022;2022-07-17T11:20:16;0.98;;;0.90;;
7813;SDS011;3952;48.364;16.022;2022-07-17T11:22:44;1.00;;;1.00;;
7813;SDS011;3952;48.364;16.022;2022-07-17T11:25:11;1.10;;;1.10;;
7813;SDS011;3952;48.364;16.022;2022-07-17T11:27:40;2.70;;;0.90;;
7813;SDS011;3952;48.364;16.022;2022-07-17T11:30:10;0.80;;;0.80;;
7813;SDS011;3952;48.364;16.022;2022-07-17T11:32:41;1.30;;;1.20;;
7813;SDS011;3952;48.364;16.022;2022-07-17T11:35:17;1.65;;;1.10;;
7813;SDS011;3952;48.364;16.022;2022-07-17T11:37:47;1.33;;;1.20;;
7813;SDS011;3952;48.364;16.022;2022-07-17T11:40:16;1.20;;;1.10;;
7813;SDS011;3952;48.364;16.022;2022-07-17T11:42:44;1.55;;;0.95;;
7813;SDS011;3952;48.364;16.022;2022-07-17T11:45:12;3.95;;;1.10;;
7813;SDS011;3952;48.364;16.022;2022-07-17T11:47:39;1.08;;;0.98;;
7813;SDS011;3952;48.364;16.022;2022-07-17T11:50:08;1.08;;;1.08;;
7813;SDS011;3952;48.364;16.022;2022-07-17T11:52:42;1.55;;;1.10;;
7813;SDS011;3952;48.364;16.022;2022-07-17T11:55:10;1.30;;;1.20;;
7813;SDS011;3952;48.364;16.022;2022-07-17T11:57:42;1.83;;;1.00;;
7813;SDS011;3952;48.364;16.022;2022-07-17T12:00:13;1.17;;;1.08;;
7813;SDS011;3952;48.364;16.022;2022-07-17T12:02:42;0.98;;;0.98;;
7813;SDS011;3952;48.364;16.022;2022-07-17T12:05:09;1.05;;;1.00;;
7813;SDS011;3952;48.364;16.022;2022-07-17T12:07:41;1.25;;;1.15;;
7813;SDS011;3952;48.364;16.022;2022-07-17T12:10:13;1.10;;;1.10;;
7813;SDS011;3952;48.364;16.022;2022-07-17T12:12:52;1.55;;;1.17;;
7813;SDS011;3952;48.364;16.022;2022-07-17T12:15:21;1.20;;;1.20;;
7813;SDS011;3952;48.364;16.022;2022-07-17T12:18:01;0.80;;;0.80;;
7813;SDS011;3952;48.364;16.022;2022-07-17T12:20:40;1.65;;;1.00;;
7813;SDS011;3952;48.364;16.022;2022-07-17T12:23:08;3.28;;;1.00;;
7813;SDS011;3952;48.364;16.022;2022-07-17T12:25:51;3.40;;;1.20;;
7813;SDS011;3952;48.364;16.022;2022-07-17T12:28:30;1.30;;;1.25;;
7813;SDS011;3952;48.364;16.022;2022-07-17T12:30:57;2.25;;;1.45;;
7813;SDS011;3952;48.364;16.022;2022-07-17T12:33:24;1.13;;;1.05;;
7813;SDS011;3952;48.364;16.022;2022-07-17T12:35:52;2.45;;;1.10;;
7813;SDS011;3952;48.364;16.022;2022-07-17T12:38:19;1.40;;;1.00;;
7813;SDS011;3952;48.364;16.022;2022-07-17T12:40:46;2.60;;;1.42;;
7813;SDS011;3952;48.364;16.022;2022-07-17T12:43:14;1.17;;;1.08;;
7813;SDS011;3952;48.364;16.022;2022-07-17T12:45:42;2.20;;;1.40;;
7813;SDS011;3952;48.364;16.022;2022-07-17T12:48:09;1.13;;;0.90;;
7813;SDS011;3952;48.364;16.022;2022-07-17T12:50:37;1.20;;;1.10;;
7813;SDS011;3952;48.364;16.022;2022-07-17T12:53:04;1.10;;;1.10;;
7813;SDS011;3952;48.364;16.022;2022-07-17T12:55:31;1.33;;;1.20;;
7813;SDS011;3952;48.364;16.022;2022-07-17T12:57:59;1.80;;;1.05;;
7813;SDS011;3952;48.364;16.022;2022-07-17T13:00:26;2.05;;;1.17;;
7813;SDS011;3952;48.364;16.022;2022-07-17T13:02:55;2.70;;;1.27;;
7813;SDS011;3952;48.364;16.022;2022-07-17T13:05:22;2.70;;;1.33;;
7813;SDS011;3952;48.364;16.022;2022-07-17T13:07:50;1.30;;;1.20;;
7813;SDS011;3952;48.364;16.022;2022-07-17T13:10:17;2.28;;;1.40;;
7813;SDS011;3952;48.364;16.022;2022-07-17T13:12:45;1.17;;;1.10;;
7813;SDS011;3952;48.364;16.022;2022-07-17T13:15:12;1.98;;;1.00;;
7813;SDS011;3952;48.364;16.022;2022-07-17T13:17:39;3.38;;;1.02;;
7813;SDS011;3952;48.364;16.022;2022-07-17T13:20:10;1.85;;;0.90;;
7813;SDS011;3952;48.364;16.022;2022-07-17T13:22:38;4.82;;;1.00;;
7813;SDS011;3952;48.364;16.022;2022-07-17T13:25:06;2.10;;;1.10;;
7813;SDS011;3952;48.364;16.022;2022-07-17T13:27:34;1.15;;;1.05;;
7813;SDS011;3952;48.364;16.022;2022-07-17T13:30:02;2.60;;;1.10;;
7813;SDS011;3952;48.364;16.022;2022-07-17T13:32:30;1.17;;;1.10;;
7813;SDS011;3952;48.364;16.022;2022-07-17T13:34:57;1.75;;;1.00;;
7813;SDS011;3952;48.364;16.022;2022-07-17T13:37:26;2.15;;;1.10;;
7813;SDS011;3952;48.364;16.022;2022-07-17T13:39:53;1.50;;;1.40;;
7813;SDS011;3952;48.364;16.022;2022-07-17T13:42:21;1.25;;;1.10;;
7813;SDS011;3952;48.364;16.022;2022-07-17T13:44:48;1.52;;;1.20;;
7813;SDS011;3952;48.364;16.022;2022-07-17T13:47:15;1.17;;;1.17;;
7813;SDS011;3952;48.364;16.022;2022-07-17T13:49:43;2.15;;;1.10;;
7813;SDS011;3952;48.364;16.022;2022-07-17T13:52:10;1.05;;;1.00;;
7813;SDS011;3952;48.364;16.022;2022-07-17T13:54:38;1.00;;;1.00;;
7813;SDS011;3952;48.364;16.022;2022-07-17T13:57:06;1.27;;;1.15;;
7813;SDS011;3952;48.364;16.022;2022-07-17T13:59:33;0.88;;;0.88;;
7813;SDS011;3952;48.364;16.022;2022-07-17T14:02:00;2.33;;;1.25;;
7813;SDS011;3952;48.364;16.022;2022-07-17T14:04:27;1.33;;;1.30;;
7813;SDS011;3952;48.364;16.022;2022-07-17T14:06:55;2.15;;;1.23;;
7813;SDS011;3952;48.364;16.022;2022-07-17T14:09:22;1.10;;;1.10;;
7813;SDS011;3952;48.364;16.022;2022-07-17T14:11:50;1.30;;;1.05;;
7813;SDS011;3952;48.364;16.022;2022-07-17T14:14:20;1.73;;;1.40;;
7813;SDS011;3952;48.364;16.022;2022-07-17T14:16:47;4.22;;;1.27;;
7813;SDS011;3952;48.364;16.022;2022-07-17T14:19:14;0.98;;;0.98;;
7813;SDS011;3952;48.364;16.022;2022-07-17T14:21:41;1.00;;;1.00;;
7813;SDS011;3952;48.364;16.022;2022-07-17T14:24:10;1.58;;;1.20;;
7813;SDS011;3952;48.364;16.022;2022-07-17T14:26:37;1.60;;;1.05;;
7813;SDS011;3952;48.364;16.022;2022-07-17T14:29:09;1.48;;;1.00;;
7813;SDS011;3952;48.364;16.022;2022-07-17T14:31:37;1.42;;;1.20;;
7813;SDS011;3952;48.364;16.022;2022-07-17T14:34:04;1.50;;;1.40;;
7813;SDS011;3952;48.364;16.022;2022-07-17T14:36:31;0.77;;;0.77;;
7813;SDS011;3952;48.364;16.022;2022-07-17T14:38:58;2.35;;;1.30;;
7813;SDS011;3952;48.364;16.022;2022-07-17T14:41:26;2.10;;;1.20;;
7813;SDS011;3952;48.364;16.022;2022-07-17T14:43:53;0.95;;;0.82;;
7813;SDS011;3952;48.364;16.022;2022-07-17T14:46:22;3.28;;;1.35;;
7813;SDS011;3952;48.364;16.022;2022-07-17T14:48:49;1.15;;;1.00;;
7813;SDS011;3952;48.364;16.022;2022-07-17T14:51:16;1.10;;;1.10;;
7813;SDS011;3952;48.364;16.022;2022-07-17T14:53:43;1.10;;;1.10;;
7813;SDS011;3952;48.364;16.022;2022-07-17T14:56:11;1.55;;;1.00;;
7813;SDS011;3952;48.364;16.022;2022-07-17T14:58:38;2.55;;;1.48;;
7813;SDS011;3952;48.364;16.022;2022-07-17T15:01:05;1.48;;;1.20;;
7813;SDS011;3952;48.364;16.022;2022-07-17T15:03:35;1.05;;;1.05;;
7813;SDS011;3952;48.364;16.022;2022-07-17T15:06:02;1.10;;;1.00;;
7813;SDS011;3952;48.364;16.022;2022-07-17T15:08:30;1.27;;;1.02;;